Time;durP1;ratioP1;P1;durP2;ratioP2;P2;SDS_P1;SDS_P2;PMS_P1;PMS_P2;Temp;Humidity;BMP_temperature;BMP_pressure;BME280_temperature;BME280_humidity;BME280_pressure;Samples;Min_cycle;Max_cycle;Signal;HPM_P1;HPM_P2
2023/07/13 00:01:49;;;;;;;8.07;2.13;;;16.90;69.20;;;;;;5029332;28;20484;-77
2023/07/13 00:04:18;;;;;;;6.95;1.60;;;16.90;69.30;;;;;;5030144;28;20112;-76
2023/07/13 00:06:45;;;;;;;6.43;1.92;;;16.90;69.40;;;;;;5031566;28;20512;-77
2023/07/13 00:09:13;;;;;;;6.77;1.80;;;16.90;69.40;;;;;;5030345;28;20546;-77
2023/07/13 00:11:41;;;;;;;8.15;1.70;;;16.80;69.70;;;;;;5029783;28;20265;-77
2023/07/13 00:14:10;;;;;;;8.13;2.10;;;16.80;69.90;;;;;;5028786;28;20046;-77
2023/07/13 00:16:38;;;;;;;7.65;1.98;;;16.80;70.20;;;;;;5031497;28;20062;-76
2023/07/13 00:19:06;;;;;;;6.60;1.88;;;16.80;70.10;;;;;;5031593;28;20505;-77
2023/07/13 00:21:33;;;;;;;7.70;1.80;;;16.80;70.30;;;;;;5029457;28;20535;-77
2023/07/13 00:24:01;;;;;;;8.02;2.08;;;16.70;70.40;;;;;;5029621;28;20396;-77
2023/07/13 00:26:28;;;;;;;6.30;1.70;;;16.70;70.80;;;;;;5030245;28;20554;-77
2023/07/13 00:28:56;;;;;;;7.60;1.95;;;16.70;70.80;;;;;;5029522;28;20046;-77
2023/07/13 00:31:24;;;;;;;8.93;1.90;;;16.70;71.10;;;;;;5045168;28;20504;-76
2023/07/13 00:33:51;;;;;;;7.67;2.00;;;16.70;71.20;;;;;;5029710;28;20444;-78
2023/07/13 00:36:18;;;;;;;7.43;1.85;;;16.70;71.40;;;;;;5013481;28;20828;-77
2023/07/13 00:38:45;;;;;;;7.78;1.85;;;16.70;71.50;;;;;;5013018;28;20112;-77
2023/07/13 00:41:12;;;;;;;8.38;2.25;;;16.70;71.40;;;;;;5013331;28;20057;-77
2023/07/13 00:43:39;;;;;;;9.95;2.05;;;16.70;71.80;;;;;;5029119;28;20038;-77
2023/07/13 00:46:29;;;;;;;6.70;1.97;;;16.70;71.80;;;;;;5029737;28;20053;-77
2023/07/13 00:48:59;;;;;;;9.63;2.13;;;16.70;71.90;;;;;;5030707;28;20743;-77
2023/07/13 00:51:31;;;;;;;7.38;1.75;;;16.70;72.20;;;;;;5029709;28;20064;-77
2023/07/13 00:54:04;;;;;;;10.50;1.92;;;16.70;72.20;;;;;;5031086;28;20074;-77
2023/07/13 00:56:33;;;;;;;9.23;2.10;;;16.70;72.20;;;;;;5009841;28;20050;-77
2023/07/13 00:59:03;;;;;;;11.00;2.10;;;16.70;72.50;;;;;;5043323;28;20058;-77
2023/07/13 01:01:31;;;;;;;5.95;1.70;;;16.60;72.40;;;;;;5013017;28;20407;-78
2023/07/13 01:03:58;;;;;;;8.18;1.73;;;16.60;72.20;;;;;;5028276;28;20118;-77
2023/07/13 01:06:26;;;;;;;9.20;1.75;;;16.60;72.40;;;;;;5012660;28;20078;-77
2023/07/13 01:08:53;;;;;;;9.95;2.00;;;16.60;72.50;;;;;;5029517;28;20046;-77
2023/07/13 01:11:22;;;;;;;8.07;1.73;;;16.60;72.30;;;;;;5041171;28;20049;-77
2023/07/13 01:13:49;;;;;;;9.18;2.28;;;16.60;72.70;;;;;;5035071;28;20323;-77
2023/07/13 01:16:23;;;;;;;8.75;2.38;;;16.60;72.80;;;;;;5029605;28;20057;-77
2023/07/13 01:18:51;;;;;;;9.25;2.17;;;16.60;72.90;;;;;;5012782;28;20501;-78
2023/07/13 01:21:20;;;;;;;8.45;2.25;;;16.50;72.90;;;;;;5028119;28;20666;-77
2023/07/13 01:23:48;;;;;;;8.63;1.83;;;16.50;73.00;;;;;;5029243;28;20121;-77
2023/07/13 01:26:15;;;;;;;6.97;1.77;;;16.50;72.90;;;;;;5012773;28;20356;-77
2023/07/13 01:28:42;;;;;;;11.05;2.50;;;16.50;73.00;;;;;;5029344;28;20057;-77
2023/07/13 01:31:09;;;;;;;7.25;2.10;;;16.50;73.20;;;;;;5045552;28;20657;-77
2023/07/13 01:33:38;;;;;;;7.80;1.75;;;16.40;73.30;;;;;;5012783;28;20436;-77
2023/07/13 01:36:05;;;;;;;11.53;2.20;;;16.40;73.40;;;;;;5029082;28;20108;-78
2023/07/13 01:38:34;;;;;;;9.00;2.40;;;16.40;73.50;;;;;;5011343;28;20341;-77
2023/07/13 01:41:01;;;;;;;8.50;1.60;;;16.40;73.60;;;;;;5012277;28;20050;-78
2023/07/13 01:43:29;;;;;;;10.57;2.38;;;16.40;73.70;;;;;;5012661;28;20057;-77
2023/07/13 01:45:55;;;;;;;10.63;2.25;;;16.40;73.80;;;;;;5029099;28;20532;-78
2023/07/13 01:48:22;;;;;;;8.37;2.03;;;16.40;73.90;;;;;;5030421;28;20241;-77
2023/07/13 01:50:49;;;;;;;8.32;2.13;;;16.40;74.30;;;;;;5012229;28;20320;-77
2023/07/13 01:53:16;;;;;;;10.35;1.83;;;16.40;74.10;;;;;;5028733;28;20050;-77
2023/07/13 01:55:45;;;;;;;6.47;2.08;;;16.40;74.30;;;;;;5028078;28;20221;-77
2023/07/13 01:58:12;;;;;;;12.50;2.35;;;16.40;74.30;;;;;;5012158;28;20128;-77
2023/07/13 02:00:39;;;;;;;6.03;1.83;;;16.30;74.50;;;;;;5012204;28;20511;-77
2023/07/13 02:03:06;;;;;;;6.93;1.95;;;16.30;74.60;;;;;;5012198;28;20373;-77
2023/07/13 02:05:33;;;;;;;8.95;2.30;;;16.30;74.80;;;;;;5028061;28;20057;-77
2023/07/13 02:08:00;;;;;;;11.23;2.30;;;16.30;75.10;;;;;;5028624;28;20046;-77
2023/07/13 02:10:28;;;;;;;6.53;2.10;;;16.20;75.00;;;;;;5011838;28;20073;-77
2023/07/13 02:12:56;;;;;;;10.87;2.20;;;16.20;75.10;;;;;;5026620;28;20173;-77
2023/07/13 02:15:23;;;;;;;8.38;2.10;;;16.20;75.20;;;;;;5012037;28;20293;-77
2023/07/13 02:17:50;;;;;;;8.60;2.00;;;16.20;75.50;;;;;;5028486;28;20579;-77
2023/07/13 02:20:17;;;;;;;9.48;2.20;;;16.20;75.40;;;;;;5011822;28;20070;-77
2023/07/13 02:22:44;;;;;;;8.30;2.10;;;16.20;75.40;;;;;;5003004;28;20603;-77
2023/07/13 02:25:11;;;;;;;8.53;2.40;;;16.20;75.70;;;;;;5028549;28;20049;-77
2023/07/13 02:27:38;;;;;;;10.30;2.45;;;16.20;75.80;;;;;;5012011;28;20245;-77
2023/07/13 02:30:07;;;;;;;9.60;2.28;;;16.20;75.60;;;;;;5010430;28;20046;-77
2023/07/13 02:32:35;;;;;;;8.27;2.13;;;16.10;75.80;;;;;;5029277;28;20655;-77
2023/07/13 02:35:03;;;;;;;10.60;2.35;;;16.10;75.70;;;;;;5029986;28;20647;-77
2023/07/13 02:37:30;;;;;;;10.07;2.20;;;16.10;75.90;;;;;;5026502;28;20073;-77
2023/07/13 02:39:57;;;;;;;6.10;1.88;;;16.10;76.00;;;;;;5008046;28;20266;-77
2023/07/13 02:42:24;;;;;;;9.95;2.65;;;16.10;75.90;;;;;;5024392;28;20133;-77
2023/07/13 02:44:52;;;;;;;9.30;2.00;;;16.10;76.10;;;;;;5011677;28;20665;-78
2023/07/13 02:47:20;;;;;;;8.15;1.83;;;16.00;76.00;;;;;;5010418;28;20475;-77
2023/07/13 02:49:47;;;;;;;6.80;1.90;;;16.00;76.20;;;;;;5011768;28;20046;-77
2023/07/13 02:52:14;;;;;;;8.45;2.00;;;16.00;76.20;;;;;;5011158;28;20663;-77
2023/07/13 02:54:41;;;;;;;10.38;2.60;;;16.00;76.20;;;;;;5029486;28;20054;-77
2023/07/13 02:57:08;;;;;;;7.57;2.33;;;16.00;76.40;;;;;;5010992;28;20487;-77
2023/07/13 02:59:35;;;;;;;7.60;2.10;;;16.00;76.40;;;;;;5011292;28;20061;-77
2023/07/13 03:02:02;;;;;;;10.10;2.00;;;16.00;76.30;;;;;;5011156;28;20050;-77
2023/07/13 03:04:31;;;;;;;10.20;2.15;;;16.00;76.70;;;;;;5002403;28;20269;-77
2023/07/13 03:06:58;;;;;;;10.07;2.35;;;16.00;76.80;;;;;;4994465;28;20050;-77
2023/07/13 03:09:29;;;;;;;7.93;2.30;;;16.00;76.90;;;;;;5010886;28;20046;-77
2023/07/13 03:11:57;;;;;;;9.40;2.20;;;16.00;76.80;;;;;;5027178;28;20586;-77
2023/07/13 03:14:30;;;;;;;10.47;2.40;;;16.00;76.80;;;;;;5011514;28;20050;-78
2023/07/13 03:16:57;;;;;;;11.80;2.40;;;16.00;77.00;;;;;;5011034;28;20325;-77
2023/07/13 03:19:27;;;;;;;9.10;2.47;;;15.90;76.90;;;;;;5011245;28;20133;-77
2023/07/13 03:21:57;;;;;;;6.78;2.08;;;16.00;77.00;;;;;;5025944;28;20104;-77
2023/07/13 03:24:25;;;;;;;11.35;2.53;;;16.00;77.20;;;;;;5010967;28;20501;-77
2023/07/13 03:26:53;;;;;;;7.23;2.27;;;15.90;77.20;;;;;;5030742;28;20049;-77
2023/07/13 03:29:20;;;;;;;10.05;2.20;;;16.00;77.50;;;;;;5030594;28;20269;-76
2023/07/13 03:31:47;;;;;;;8.00;2.00;;;15.90;77.50;;;;;;5030061;28;20061;-78
2023/07/13 03:34:14;;;;;;;11.20;2.30;;;15.90;77.60;;;;;;5014415;28;20068;-77
2023/07/13 03:36:42;;;;;;;8.68;2.28;;;15.90;77.60;;;;;;5014089;28;20053;-77
2023/07/13 03:39:13;;;;;;;7.97;2.10;;;15.90;77.70;;;;;;5017930;28;20058;-77
2023/07/13 03:41:49;;;;;;;7.45;2.03;;;15.80;78.00;;;;;;5027306;28;20305;-77
2023/07/13 03:44:18;;;;;;;9.30;2.40;;;15.80;78.10;;;;;;5023621;28;20540;-78
2023/07/13 03:46:46;;;;;;;12.50;2.35;;;15.80;78.30;;;;;;5010703;28;20116;-78
2023/07/13 03:49:14;;;;;;;11.20;2.30;;;15.80;78.30;;;;;;5014048;28;20807;-78
2023/07/13 03:51:41;;;;;;;9.53;2.30;;;15.80;78.40;;;;;;5013641;28;20054;-77
2023/07/13 03:54:08;;;;;;;9.73;2.60;;;15.80;78.80;;;;;;5012457;28;20783;-77
2023/07/13 03:56:36;;;;;;;10.80;2.50;;;15.80;79.00;;;;;;5026063;28;20050;-77
2023/07/13 03:59:04;;;;;;;11.05;2.67;;;15.80;79.50;;;;;;5013883;28;20053;-78
2023/07/13 04:01:32;;;;;;;9.43;2.40;;;15.80;79.60;;;;;;5046142;28;20137;-77
2023/07/13 04:04:00;;;;;;;9.97;2.57;;;15.80;79.80;;;;;;5023435;28;20580;-77
2023/07/13 04:06:29;;;;;;;9.38;2.47;;;15.80;79.70;;;;;;4996526;28;20380;-77
2023/07/13 04:08:58;;;;;;;9.30;2.42;;;15.80;80.10;;;;;;5014075;28;20061;-77
2023/07/13 04:11:27;;;;;;;9.90;2.50;;;15.80;80.00;;;;;;5013315;28;20069;-77
2023/07/13 04:13:56;;;;;;;10.27;2.58;;;15.80;79.90;;;;;;5012817;28;20045;-77
2023/07/13 04:16:23;;;;;;;8.10;2.23;;;15.80;80.10;;;;;;5013276;28;20621;-77
2023/07/13 04:18:54;;;;;;;10.40;2.40;;;15.80;79.90;;;;;;5030337;28;20711;-77
2023/07/13 04:21:22;;;;;;;7.70;1.98;;;15.80;80.00;;;;;;5031277;28;20108;-77
2023/07/13 04:23:51;;;;;;;8.95;2.60;;;15.80;80.10;;;;;;5029590;28;20052;-78
2023/07/13 04:26:20;;;;;;;10.65;2.42;;;15.80;80.30;;;;;;5029887;28;20049;-77
2023/07/13 04:28:48;;;;;;;10.87;2.70;;;15.80;80.50;;;;;;5031121;28;20054;-78
2023/07/13 04:31:16;;;;;;;6.88;2.55;;;15.80;80.50;;;;;;5009203;28;20281;-77
2023/07/13 04:33:43;;;;;;;9.07;2.42;;;15.80;80.70;;;;;;5026712;28;20513;-78
2023/07/13 04:36:12;;;;;;;10.73;3.05;;;15.80;80.40;;;;;;5029756;28;20087;-77
2023/07/13 04:38:39;;;;;;;10.05;2.70;;;15.80;80.60;;;;;;5029750;28;20586;-76
2023/07/13 04:41:08;;;;;;;11.60;2.60;;;15.80;80.60;;;;;;5029171;28;20561;-77
2023/07/13 04:43:36;;;;;;;9.52;2.50;;;15.80;80.80;;;;;;5029813;28;20269;-77
2023/07/13 04:46:08;;;;;;;11.07;2.75;;;15.80;80.80;;;;;;5029022;28;20050;-77
2023/07/13 04:48:37;;;;;;;8.98;2.60;;;15.80;80.90;;;;;;5009477;28;20504;-77
2023/07/13 04:51:04;;;;;;;10.15;2.63;;;15.80;81.10;;;;;;5006983;28;20042;-78
2023/07/13 04:53:34;;;;;;;12.50;2.80;;;15.80;81.00;;;;;;5010818;28;20090;-77
2023/07/13 04:56:01;;;;;;;11.80;2.83;;;15.80;81.40;;;;;;5012802;28;20274;-77
2023/07/13 04:58:28;;;;;;;9.48;2.83;;;15.80;81.20;;;;;;5011268;28;20165;-77
2023/07/13 05:01:00;;;;;;;8.50;2.53;;;15.80;81.30;;;;;;5024619;28;20042;-77
2023/07/13 05:03:27;;;;;;;10.27;2.60;;;15.80;81.20;;;;;;5028648;28;20057;-77
2023/07/13 05:06:00;;;;;;;11.77;3.03;;;15.80;81.20;;;;;;5028549;28;20054;-77
2023/07/13 05:08:27;;;;;;;12.15;3.00;;;15.80;81.30;;;;;;5030537;28;20352;-76
2023/07/13 05:10:54;;;;;;;11.95;2.90;;;15.90;81.40;;;;;;5029126;28;20150;-77
2023/07/13 05:13:21;;;;;;;8.85;2.55;;;15.90;81.20;;;;;;5030491;28;20053;-77
2023/07/13 05:15:56;;;;;;;10.60;2.83;;;15.90;81.50;;;;;;5029238;28;20053;-76
2023/07/13 05:18:22;;;;;;;10.17;2.80;;;16.00;81.60;;;;;;5029211;28;20050;-77
2023/07/13 05:21:00;;;;;;;9.68;2.90;;;16.00;81.50;;;;;;5028996;28;20284;-77
2023/07/13 05:23:26;;;;;;;10.35;3.00;;;16.00;81.70;;;;;;5028744;28;20049;-77
2023/07/13 05:25:53;;;;;;;9.95;2.60;;;16.00;81.60;;;;;;5030183;28;20053;-77
2023/07/13 05:28:21;;;;;;;11.40;2.90;;;16.00;81.70;;;;;;5045159;28;20088;-77
2023/07/13 05:30:48;;;;;;;12.13;2.83;;;16.00;81.70;;;;;;5029117;28;20556;-76
2023/07/13 05:33:15;;;;;;;14.73;3.58;;;16.00;81.60;;;;;;5028023;28;20285;-77
2023/07/13 05:35:43;;;;;;;9.13;2.80;;;16.00;81.80;;;;;;5012289;28;20108;-76
2023/07/13 05:38:11;;;;;;;9.48;2.75;;;16.10;81.70;;;;;;5005007;28;20091;-77
2023/07/13 05:40:38;;;;;;;14.27;3.10;;;16.10;82.10;;;;;;5011369;28;20515;-76
2023/07/13 05:43:08;;;;;;;9.63;3.40;;;16.10;81.80;;;;;;5029982;28;20431;-76
2023/07/13 05:45:35;;;;;;;8.30;3.13;;;16.10;81.70;;;;;;5031558;28;20257;-76
2023/07/13 05:48:02;;;;;;;9.43;3.10;;;16.10;82.00;;;;;;5036806;28;20497;-76
2023/07/13 05:50:29;;;;;;;11.02;2.97;;;16.20;81.90;;;;;;5038573;28;20499;-76
2023/07/13 05:52:56;;;;;;;14.00;3.40;;;16.20;81.90;;;;;;5040967;28;20052;-76
2023/07/13 05:55:24;;;;;;;8.40;2.13;;;16.20;81.90;;;;;;5040892;28;20125;-76
2023/07/13 05:57:51;;;;;;;10.05;2.70;;;16.30;81.80;;;;;;5028475;28;20277;-77
2023/07/13 06:00:19;;;;;;;17.02;3.47;;;16.30;82.00;;;;;;5028107;28;20161;-76
2023/07/13 06:02:46;;;;;;;8.98;2.75;;;16.40;82.10;;;;;;5030182;28;20054;-76
2023/07/13 06:05:13;;;;;;;9.95;3.22;;;16.40;82.10;;;;;;5030042;28;20128;-76
2023/07/13 06:07:40;;;;;;;12.07;3.00;;;16.40;82.30;;;;;;5028160;28;20050;-76
2023/07/13 06:10:08;;;;;;;11.57;2.95;;;16.40;82.10;;;;;;5029683;28;20314;-77
2023/07/13 06:12:36;;;;;;;10.40;2.90;;;16.40;82.20;;;;;;5028404;28;20052;-76
2023/07/13 06:15:03;;;;;;;9.30;3.00;;;16.50;82.20;;;;;;5028319;28;20060;-76
2023/07/13 06:17:30;;;;;;;10.88;3.10;;;16.50;82.30;;;;;;5027586;28;20519;-76
2023/07/13 06:19:57;;;;;;;11.47;3.37;;;16.60;82.50;;;;;;5025296;28;20078;-77
2023/07/13 06:22:25;;;;;;;10.68;2.60;;;16.60;82.10;;;;;;5017322;28;20286;-76
2023/07/13 06:24:53;;;;;;;9.23;2.40;;;16.70;82.10;;;;;;5022321;28;20534;-76
2023/07/13 06:27:20;;;;;;;10.77;2.63;;;16.70;82.00;;;;;;5028457;28;20046;-77
2023/07/13 06:29:48;;;;;;;5.18;1.33;;;16.80;82.00;;;;;;5033149;28;20545;-76
2023/07/13 06:32:15;;;;;;;7.80;2.63;;;16.90;82.20;;;;;;5028137;28;20526;-76
2023/07/13 06:34:42;;;;;;;9.32;2.10;;;16.90;81.90;;;;;;5027488;28;20870;-76
2023/07/13 06:37:10;;;;;;;6.82;2.38;;;16.90;82.20;;;;;;5025285;28;20058;-75
2023/07/13 06:39:37;;;;;;;10.38;3.08;;;17.00;81.90;;;;;;5027267;28;20759;-75
2023/07/13 06:42:06;;;;;;;8.70;2.67;;;17.00;81.70;;;;;;5025175;28;20500;-75
2023/07/13 06:44:32;;;;;;;10.73;3.10;;;17.00;81.80;;;;;;5027615;28;20060;-75
2023/07/13 06:47:01;;;;;;;9.23;2.88;;;17.10;82.00;;;;;;5025138;28;20286;-75
2023/07/13 06:49:28;;;;;;;10.52;3.03;;;17.20;81.90;;;;;;5026975;28;20696;-75
2023/07/13 06:51:55;;;;;;;10.45;3.40;;;17.20;82.00;;;;;;5027769;28;20046;-74
2023/07/13 06:54:22;;;;;;;8.65;2.78;;;17.30;81.70;;;;;;5007832;28;20054;-75
2023/07/13 06:56:49;;;;;;;9.07;2.67;;;17.40;81.50;;;;;;5011894;28;20076;-76
2023/07/13 06:59:16;;;;;;;27.17;6.15;;;17.40;81.40;;;;;;5034769;28;20842;-76
2023/07/13 07:01:42;;;;;;;8.40;3.08;;;17.50;81.20;;;;;;5033430;28;20133;-76
2023/07/13 07:04:11;;;;;;;8.90;2.88;;;17.50;80.80;;;;;;5034092;28;20540;-75
2023/07/13 07:06:38;;;;;;;9.57;2.97;;;17.50;80.60;;;;;;5021647;28;20042;-78
2023/07/13 07:09:05;;;;;;;12.00;2.77;;;17.60;80.40;;;;;;5038886;28;20054;-73
2023/07/13 07:11:32;;;;;;;9.55;2.83;;;17.60;80.50;;;;;;5035025;28;20852;-77
2023/07/13 07:13:58;;;;;;;8.68;2.50;;;17.70;80.50;;;;;;5033360;28;20058;-74
2023/07/13 07:16:26;;;;;;;9.45;3.05;;;17.70;80.50;;;;;;5041424;28;20133;-74
2023/07/13 07:18:53;;;;;;;8.75;2.80;;;17.80;80.50;;;;;;5036070;28;20052;-74
2023/07/13 07:21:22;;;;;;;7.97;2.70;;;17.80;80.50;;;;;;5036887;28;20054;-74
2023/07/13 07:23:50;;;;;;;8.02;3.22;;;17.80;80.50;;;;;;5035454;28;20797;-75
2023/07/13 07:26:17;;;;;;;10.55;3.40;;;17.80;80.20;;;;;;5034962;28;20568;-75
2023/07/13 07:28:44;;;;;;;8.63;3.60;;;17.90;80.00;;;;;;5019955;28;20057;-74
2023/07/13 07:31:11;;;;;;;11.38;3.13;;;18.00;79.60;;;;;;5019797;28;20096;-75
2023/07/13 07:33:38;;;;;;;16.03;4.93;;;18.00;79.60;;;;;;5020643;28;20072;-75
2023/07/13 07:36:06;;;;;;;9.25;3.65;;;18.00;79.60;;;;;;5034109;28;20771;-75
2023/07/13 07:38:34;;;;;;;11.45;3.50;;;18.00;79.50;;;;;;5036053;28;20133;-75
2023/07/13 07:41:03;;;;;;;9.27;3.22;;;18.00;79.40;;;;;;5034428;28;20057;-74
2023/07/13 07:43:30;;;;;;;8.20;3.05;;;18.00;79.20;;;;;;5028286;28;21045;-75
2023/07/13 07:45:57;;;;;;;9.67;2.97;;;18.10;79.20;;;;;;5038322;28;20046;-75
2023/07/13 07:48:24;;;;;;;12.77;3.00;;;18.10;79.10;;;;;;5035227;28;20254;-75
2023/07/13 07:50:51;;;;;;;9.88;3.30;;;18.10;78.70;;;;;;5026708;28;20074;-74
2023/07/13 07:53:17;;;;;;;10.10;3.67;;;18.10;78.70;;;;;;5011858;28;20050;-74
2023/07/13 07:55:47;;;;;;;7.88;3.25;;;18.10;78.60;;;;;;5010495;28;20344;-74
2023/07/13 07:58:14;;;;;;;9.20;3.10;;;18.10;78.40;;;;;;5023236;28;20500;-75
2023/07/13 08:00:41;;;;;;;8.68;2.92;;;18.10;78.40;;;;;;5021031;28;20366;-75
2023/07/13 08:03:08;;;;;;;9.65;3.30;;;18.10;78.60;;;;;;5024706;28;20056;-75
2023/07/13 08:05:36;;;;;;;11.60;3.25;;;18.10;78.60;;;;;;5011960;28;20052;-75
2023/07/13 08:08:03;;;;;;;16.17;4.10;;;18.10;78.90;;;;;;5020016;28;20105;-75
2023/07/13 08:10:30;;;;;;;12.80;3.90;;;18.10;79.00;;;;;;5009741;28;20127;-75
2023/07/13 08:12:59;;;;;;;9.77;4.03;;;18.20;78.60;;;;;;5019906;28;20331;-75
2023/07/13 08:15:25;;;;;;;10.10;4.00;;;18.20;78.70;;;;;;5021153;28;20052;-75
2023/07/13 08:17:52;;;;;;;10.85;4.50;;;18.20;78.80;;;;;;5029412;28;20673;-74
2023/07/13 08:20:19;;;;;;;12.32;4.03;;;18.20;78.60;;;;;;5026236;28;20050;-75
2023/07/13 08:22:46;;;;;;;12.90;4.70;;;18.20;78.70;;;;;;5029215;28;20491;-76
2023/07/13 08:25:13;;;;;;;8.18;3.10;;;18.20;79.00;;;;;;5021751;28;20698;-75
2023/07/13 08:27:40;;;;;;;8.40;3.20;;;18.20;79.40;;;;;;5026212;28;20531;-75
2023/07/13 08:30:09;;;;;;;10.98;3.53;;;18.20;79.20;;;;;;5021750;28;21005;-76
2023/07/13 08:32:37;;;;;;;11.40;3.53;;;18.20;79.20;;;;;;5027098;28;20050;-76
2023/07/13 08:35:05;;;;;;;7.07;3.20;;;18.10;78.60;;;;;;5037327;28;20129;-76
2023/07/13 08:37:32;;;;;;;7.53;2.40;;;18.00;77.60;;;;;;5038553;28;20287;-76
2023/07/13 08:39:59;;;;;;;6.90;2.70;;;18.00;77.00;;;;;;5038846;28;20058;-76
2023/07/13 08:42:37;;;;;;;6.93;2.70;;;17.80;77.10;;;;;;5033097;28;20046;-76
2023/07/13 08:45:15;;;;;;;6.60;2.50;;;17.70;77.00;;;;;;5038234;28;20053;-75
2023/07/13 08:47:46;;;;;;;7.03;2.30;;;17.60;76.90;;;;;;5038783;28;20050;-74
2023/07/13 08:50:16;;;;;;;6.80;2.60;;;17.50;77.00;;;;;;5035947;28;20279;-75
2023/07/13 08:52:44;;;;;;;6.45;2.97;;;17.50;77.20;;;;;;5036817;28;20136;-75
2023/07/13 08:55:16;;;;;;;9.07;3.72;;;17.50;77.70;;;;;;5040678;28;20136;-76
2023/07/13 08:57:44;;;;;;;7.00;3.55;;;17.50;78.40;;;;;;5038823;28;20069;-75
2023/07/13 09:00:15;;;;;;;8.60;3.30;;;17.50;78.90;;;;;;5037894;28;20153;-75
2023/07/13 09:02:47;;;;;;;7.15;3.40;;;17.50;79.20;;;;;;5037905;28;20951;-75
2023/07/13 09:05:18;;;;;;;9.38;4.05;;;17.50;79.30;;;;;;5036907;28;20052;-76
2023/07/13 09:08:02;;;;;;;6.38;3.63;;;17.40;79.70;;;;;;5030713;28;20457;-75
2023/07/13 09:10:33;;;;;;;9.27;4.10;;;17.40;80.10;;;;;;5029779;28;20049;-76
2023/07/13 09:13:16;;;;;;;9.57;4.20;;;17.50;80.50;;;;;;5035356;28;20136;-76
2023/07/13 09:15:47;;;;;;;10.00;4.50;;;17.40;80.70;;;;;;5038577;28;20719;-75
2023/07/13 09:18:22;;;;;;;9.23;3.70;;;17.40;81.20;;;;;;5020841;28;20043;-75
2023/07/13 09:20:52;;;;;;;8.40;3.33;;;17.40;81.50;;;;;;5037008;28;20046;-75
2023/07/13 09:23:21;;;;;;;6.03;2.65;;;17.40;80.90;;;;;;5044281;28;20056;-75
2023/07/13 09:25:54;;;;;;;6.23;2.40;;;17.40;79.90;;;;;;5026130;28;20052;-75
2023/07/13 09:28:24;;;;;;;5.35;1.80;;;17.20;78.90;;;;;;5025708;28;20356;-75
2023/07/13 09:31:02;;;;;;;4.63;1.70;;;17.10;78.10;;;;;;5022872;28;20056;-75
2023/07/13 09:33:30;;;;;;;5.10;1.83;;;17.00;77.20;;;;;;5019156;28;20553;-75
2023/07/13 09:35:58;;;;;;;4.75;1.45;;;16.90;76.40;;;;;;5034824;28;20486;-75
2023/07/13 09:38:28;;;;;;;3.87;2.00;;;16.70;76.30;;;;;;5037427;28;20132;-73
2023/07/13 09:41:10;;;;;;;4.43;1.70;;;16.60;76.80;;;;;;5030499;28;20273;-74
2023/07/13 09:43:37;;;;;;;4.32;1.85;;;16.50;77.00;;;;;;5026778;28;20048;-74
2023/07/13 09:46:22;;;;;;;4.88;1.75;;;16.40;77.40;;;;;;5029013;28;20147;-74
2023/07/13 09:48:49;;;;;;;6.07;1.80;;;16.40;77.70;;;;;;5041711;28;20050;-74
2023/07/13 09:51:16;;;;;;;5.27;1.90;;;16.40;78.10;;;;;;5025786;28;20089;-74
2023/07/13 09:53:44;;;;;;;4.18;1.60;;;16.40;78.60;;;;;;5027994;28;20725;-74
2023/07/13 09:56:21;;;;;;;4.35;1.60;;;16.40;78.40;;;;;;5010419;28;20048;-74
2023/07/13 09:58:48;;;;;;;4.40;1.92;;;16.40;78.70;;;;;;5010659;28;20045;-74
2023/07/13 10:01:15;;;;;;;4.35;1.85;;;16.40;79.20;;;;;;5026366;28;20071;-74
2023/07/13 10:03:54;;;;;;;4.33;1.87;;;16.40;79.60;;;;;;5028099;28;20054;-74
2023/07/13 10:06:23;;;;;;;5.32;1.55;;;16.40;79.80;;;;;;5029884;28;20269;-74
2023/07/13 10:08:52;;;;;;;5.07;1.95;;;16.50;79.80;;;;;;5028849;28;20046;-74
2023/07/13 10:11:22;;;;;;;3.58;1.80;;;16.50;80.30;;;;;;5029367;28;20058;-74
2023/07/13 10:13:53;;;;;;;7.43;2.53;;;16.70;80.80;;;;;;5011955;28;20509;-74
2023/07/13 10:16:21;;;;;;;5.40;2.50;;;16.80;81.00;;;;;;5012151;28;20081;-74
2023/07/13 10:18:51;;;;;;;4.75;2.03;;;16.90;81.20;;;;;;5026879;28;20266;-74
2023/07/13 10:21:20;;;;;;;6.38;2.80;;;17.00;81.00;;;;;;5027694;28;20057;-74
2023/07/13 10:23:52;;;;;;;8.18;3.28;;;17.00;81.10;;;;;;5029566;28;20056;-74
2023/07/13 10:26:24;;;;;;;7.35;3.35;;;17.20;80.90;;;;;;5028546;28;20041;-74
2023/07/13 10:28:56;;;;;;;6.53;3.50;;;17.20;81.00;;;;;;5028210;28;20081;-74
2023/07/13 10:31:24;;;;;;;8.63;3.72;;;17.40;81.20;;;;;;5028885;28;20803;-74
2023/07/13 10:33:53;;;;;;;8.93;3.97;;;17.50;81.10;;;;;;5029649;28;20054;-75
2023/07/13 10:36:30;;;;;;;9.52;4.13;;;17.50;80.80;;;;;;5030722;28;20594;-74
2023/07/13 10:39:01;;;;;;;8.48;4.30;;;17.70;80.80;;;;;;5024732;28;20064;-74
2023/07/13 10:41:31;;;;;;;7.80;3.97;;;17.80;80.70;;;;;;5034658;28;20050;-74
2023/07/13 10:43:59;;;;;;;8.90;4.57;;;17.90;80.40;;;;;;5036223;28;20257;-74
2023/07/13 10:46:28;;;;;;;6.95;3.65;;;18.00;81.30;;;;;;5036415;28;20526;-74
2023/07/13 10:49:00;;;;;;;7.80;3.97;;;18.10;80.90;;;;;;5034859;28;20057;-75
2023/07/13 10:51:29;;;;;;;9.77;4.10;;;18.20;81.00;;;;;;5034101;28;20736;-74
2023/07/13 10:54:17;;;;;;;7.30;3.33;;;18.30;80.30;;;;;;5033380;28;20139;-74
2023/07/13 10:56:45;;;;;;;7.75;3.60;;;18.50;78.30;;;;;;5035979;28;20254;-74
2023/07/13 10:59:16;;;;;;;8.07;3.65;;;18.60;77.70;;;;;;5036175;28;20042;-75
2023/07/13 11:01:53;;;;;;;4.40;2.08;;;18.70;76.90;;;;;;5034081;28;20053;-74
2023/07/13 11:04:23;;;;;;;5.78;2.85;;;18.70;75.10;;;;;;5034326;28;20054;-74
2023/07/13 11:06:56;;;;;;;8.77;3.37;;;18.80;74.40;;;;;;5034553;28;20062;-75
2023/07/13 11:09:37;;;;;;;7.10;2.90;;;18.80;74.60;;;;;;5036132;28;20280;-74
2023/07/13 11:12:09;;;;;;;6.03;3.45;;;18.80;73.90;;;;;;5015521;28;20053;-74
2023/07/13 11:14:38;;;;;;;7.18;3.17;;;18.80;74.10;;;;;;5017792;28;20189;-74
2023/07/13 11:17:26;;;;;;;6.50;3.30;;;18.90;72.60;;;;;;5035467;28;20141;-75
2023/07/13 11:19:55;;;;;;;8.20;3.60;;;18.90;74.10;;;;;;5017754;28;20121;-74
2023/07/13 11:22:27;;;;;;;5.57;3.45;;;18.80;75.10;;;;;;5035147;28;20321;-74
2023/07/13 11:25:02;;;;;;;5.63;2.88;;;18.80;75.40;;;;;;5034097;28;20078;-75
2023/07/13 11:27:41;;;;;;;7.53;3.40;;;18.80;75.10;;;;;;5035583;28;20133;-74
2023/07/13 11:30:32;;;;;;;5.80;2.83;;;18.70;75.40;;;;;;5032630;28;20561;-74
2023/07/13 11:33:14;;;;;;;5.07;2.80;;;18.70;75.60;;;;;;5033569;28;20054;-74
2023/07/13 11:35:54;;;;;;;7.07;2.85;;;18.60;75.70;;;;;;5035341;28;20257;-74
2023/07/13 11:38:23;;;;;;;8.43;3.22;;;18.70;75.80;;;;;;5033865;28;20058;-74
2023/07/13 11:40:54;;;;;;;6.22;2.97;;;18.60;75.90;;;;;;5034931;28;20132;-74
2023/07/13 11:43:23;;;;;;;6.55;3.00;;;18.60;76.00;;;;;;5033668;28;20120;-74
2023/07/13 11:45:50;;;;;;;6.70;3.20;;;18.60;76.30;;;;;;5048142;28;20053;-74
2023/07/13 11:48:21;;;;;;;7.68;3.28;;;18.60;76.70;;;;;;5029249;28;20882;-74
2023/07/13 11:50:55;;;;;;;6.45;3.20;;;18.70;76.60;;;;;;5030281;28;20057;-74
2023/07/13 11:53:23;;;;;;;8.15;2.83;;;18.70;76.20;;;;;;5013862;28;20136;-74
2023/07/13 11:55:51;;;;;;;5.10;3.13;;;18.80;76.50;;;;;;5030591;28;20389;-74
2023/07/13 11:58:23;;;;;;;6.67;3.70;;;18.80;76.50;;;;;;5030594;28;20057;-75
2023/07/13 12:00:51;;;;;;;5.10;3.22;;;18.80;76.80;;;;;;5029276;28;20265;-74
2023/07/13 12:03:24;;;;;;;6.47;3.35;;;18.90;77.20;;;;;;5014295;28;20041;-74
2023/07/13 12:06:00;;;;;;;8.50;3.38;;;18.90;77.40;;;;;;5028471;28;20046;-74
2023/07/13 12:08:28;;;;;;;6.68;3.22;;;19.00;76.60;;;;;;5030375;28;20500;-74
2023/07/13 12:11:05;;;;;;;5.70;3.27;;;19.10;76.00;;;;;;5026736;28;20058;-74
2023/07/13 12:13:38;;;;;;;8.15;3.25;;;19.20;75.70;;;;;;5014802;28;20262;-74
2023/07/13 12:16:13;;;;;;;6.78;3.03;;;19.20;75.90;;;;;;5031375;28;20065;-74
2023/07/13 12:18:41;;;;;;;6.38;3.03;;;19.30;76.20;;;;;;5031742;28;20060;-75
2023/07/13 12:21:15;;;;;;;7.28;3.00;;;19.30;76.10;;;;;;5029705;28;20570;-75
2023/07/13 12:23:45;;;;;;;9.53;3.17;;;19.40;75.90;;;;;;5028421;28;20054;-74
2023/07/13 12:26:13;;;;;;;3.63;1.38;;;19.50;76.80;;;;;;5026561;28;20752;-74
2023/07/13 12:28:48;;;;;;;6.70;1.80;;;19.50;69.30;;;;;;5010137;28;20183;-74
2023/07/13 12:31:26;;;;;;;4.32;1.15;;;19.70;70.10;;;;;;5027830;28;20108;-74
2023/07/13 12:33:58;;;;;;;3.45;0.93;;;19.80;63.90;;;;;;5031365;28;20081;-74
2023/07/13 12:36:29;;;;;;;4.37;0.87;;;19.90;61.40;;;;;;5031598;28;20057;-74
2023/07/13 12:38:56;;;;;;;5.00;1.05;;;20.00;59.70;;;;;;5031498;28;20936;-74
2023/07/13 12:41:24;;;;;;;3.45;0.90;;;20.10;57.10;;;;;;5029170;28;20050;-74
2023/07/13 12:43:51;;;;;;;3.03;0.70;;;20.20;58.00;;;;;;5030948;28;20453;-75
2023/07/13 12:46:20;;;;;;;3.85;0.75;;;20.30;56.60;;;;;;5029647;28;20137;-74
2023/07/13 12:48:51;;;;;;;4.77;1.00;;;20.30;56.50;;;;;;5030086;28;20665;-74
2023/07/13 12:51:22;;;;;;;4.75;1.17;;;20.40;57.30;;;;;;5026393;28;20373;-74
2023/07/13 12:53:53;;;;;;;4.30;0.88;;;20.50;57.00;;;;;;5029773;28;20046;-74